Old Washington, Ohio
Current Conditions -  °F | °C
As of 11:53 PM on Friday 19 Dec 2014 (Local Time) from KZZV Reporting Station
Overcast Overcast  
Wind Chill: 29°   Ceiling: 1900
Heat Index: 29°   Visibility: 10mi
Dew Point: 22°   Wind: 3mph
Humidity: 75%   Direction: 90°E
Pressure: 30.27"   Gusts: NA
Location:  40.04°N, 81.44°W
Report Text: KZZV 200453Z AUTO 09003KT 10SM OVC019 M02/M06 A3027 RMK AO2 SLP259 T10171056 410111033
Loading
Personal Weather Stations






























Interactive Weather Map New forecast layout! Learn more

10-Day Weather Forecast

Advertisements
Track Severe Weather on mobile